createdAt,value
2023-02-22T00:02:10.825Z,98181.44
2023-02-22T00:04:40.195Z,98178.41
2023-02-22T00:07:08.435Z,98184.63
2023-02-22T00:09:36.109Z,98182.41
2023-02-22T00:12:03.812Z,98177.94
2023-02-22T00:14:31.427Z,98171.53
2023-02-22T00:16:59.612Z,98169.31
2023-02-22T00:19:30.068Z,98170.13
2023-02-22T00:22:00.144Z,98158.78
2023-02-22T00:24:29.373Z,98160.06
2023-02-22T00:26:57.175Z,98158.78
2023-02-22T00:29:26.337Z,98157.81
2023-02-22T00:31:54.485Z,98150.97
2023-02-22T00:34:23.339Z,98146.63
2023-02-22T00:36:51.537Z,98151.41
2023-02-22T00:39:20.601Z,98152.22
2023-02-22T00:41:49.690Z,98156.22
2023-02-22T00:44:17.410Z,98151.75
2023-02-22T00:46:45.043Z,98146.16
2023-02-22T00:49:12.743Z,98144.53
2023-02-22T00:51:40.545Z,98147.25
2023-02-22T00:54:08.410Z,98139.44
2023-02-22T00:56:38.339Z,98141.97
2023-02-22T00:59:06.157Z,98154.28
2023-02-22T01:01:33.851Z,98148.81
2023-02-22T01:04:01.454Z,98143.72
2023-02-22T01:06:29.704Z,98139.91
2023-02-22T01:08:57.392Z,98143.53
2023-02-22T01:11:25.328Z,98140.53
2023-02-22T01:13:54.446Z,98140.53
2023-02-22T01:16:22.550Z,98142.56
2023-02-22T01:18:50.463Z,98129.69
2023-02-22T01:21:18.377Z,98127.13
2023-02-22T01:23:46.566Z,98133.81
2023-02-22T01:26:14.310Z,98135.09
2023-02-22T01:28:41.935Z,98133.50
2023-02-22T01:31:12.529Z,98129.06
2023-02-22T01:33:41.472Z,98122.66
2023-02-22T01:36:11.360Z,98122.66
2023-02-22T01:38:39.229Z,98121.34
2023-02-22T01:41:07.039Z,98123.59
2023-02-22T01:43:34.770Z,98125.34
2023-02-22T01:46:04.939Z,98120.59
2023-02-22T01:48:42.182Z,98120.09
2023-02-22T01:51:14.646Z,98118.63
2023-02-22T01:53:48.316Z,98116.41
2023-02-22T01:56:17.151Z,98115.25
2023-02-22T01:58:49.236Z,98110.81
2023-02-22T02:01:19.297Z,98105.53
2023-02-22T02:03:49.244Z,98099.50
2023-02-22T02:06:19.444Z,98100.63
2023-02-22T02:08:54.937Z,98103.69
2023-02-22T02:11:25.535Z,98099.38
2023-02-22T02:13:55.656Z,98097.78
2023-02-22T02:16:24.394Z,98095.56
2023-02-22T02:18:53.704Z,98093.94
2023-02-22T02:21:57.171Z,98085.84
2023-02-22T02:24:52.172Z,98078.69
2023-02-22T02:27:23.676Z,98088.19
2023-02-22T02:30:28.421Z,98082.94
2023-02-22T02:33:02.632Z,98086.31
2023-02-22T02:35:40.660Z,98087.56
2023-02-22T02:38:16.840Z,98079.94
2023-02-22T02:40:50.434Z,98086.75
2023-02-22T02:43:28.800Z,98083.41
2023-02-22T02:46:02.529Z,98084.84
2023-02-22T02:48:35.285Z,98084.81
2023-02-22T02:51:08.956Z,98080.50
2023-02-22T02:53:39.754Z,98082.09
2023-02-22T02:56:08.586Z,98077.94
2023-02-22T02:58:45.828Z,98078.28
2023-02-22T03:01:16.357Z,98075.41
2023-02-22T03:04:08.156Z,98072.94
2023-02-22T03:07:00.223Z,98072.81
2023-02-22T03:09:41.932Z,98068.94
2023-02-22T03:12:20.782Z,98065.13
2023-02-22T03:14:56.865Z,98061.31
2023-02-22T03:17:30.240Z,98062.72
2023-02-22T03:20:09.653Z,98065.91
2023-02-22T03:22:44.115Z,98065.13
2023-02-22T03:25:16.171Z,98058.41
2023-02-22T03:27:47.563Z,98065.41
2023-02-22T03:30:20.497Z,98059.63
2023-02-22T03:32:52.765Z,98051.66
2023-02-22T03:35:25.138Z,98054.50
2023-02-22T03:37:56.931Z,98051.31
2023-02-22T03:40:29.434Z,98053.06
2023-02-22T03:43:01.578Z,98056.44
2023-02-22T03:45:31.886Z,98062.22
2023-02-22T03:48:06.511Z,98057.75
2023-02-22T03:50:38.480Z,98050.00
2023-02-22T03:53:07.449Z,98048.81
2023-02-22T03:55:35.473Z,98048.63
2023-02-22T03:58:07.029Z,98052.03
2023-02-22T04:00:36.382Z,98050.41
2023-02-22T04:03:05.458Z,98045.75
2023-02-22T04:05:33.177Z,98045.13
2023-02-22T04:08:02.152Z,98047.84
2023-02-22T04:10:29.820Z,98044.94
2023-02-22T04:12:57.585Z,98051.13
2023-02-22T04:15:25.927Z,98050.94
2023-02-22T04:17:53.605Z,98052.81
2023-02-22T04:20:25.459Z,98045.44
2023-02-22T04:22:53.535Z,98044.22
2023-02-22T04:25:24.569Z,98047.94
2023-02-22T04:27:52.477Z,98043.66
2023-02-22T04:30:20.949Z,98051.75
2023-02-22T04:32:48.613Z,98045.97
2023-02-22T04:35:16.316Z,98041.41
2023-02-22T04:37:44.038Z,98041.03
2023-02-22T04:40:12.176Z,98044.19
2023-02-22T04:42:41.211Z,98040.25
2023-02-22T04:45:10.348Z,98035.91
2023-02-22T04:47:38.708Z,98035.16
2023-02-22T04:50:08.496Z,98038.47
2023-02-22T04:52:36.255Z,98031.09
2023-02-22T04:55:04.816Z,98031.91
2023-02-22T04:57:32.572Z,98027.28
2023-02-22T05:00:01.711Z,98026.19
2023-02-22T05:02:29.550Z,98025.19
2023-02-22T05:04:57.311Z,98024.34
2023-02-22T05:07:24.946Z,98023.75
2023-02-22T05:09:52.619Z,98024.94
2023-02-22T05:12:20.327Z,98027.16
2023-02-22T05:14:48.081Z,98025.94
2023-02-22T05:17:17.123Z,98022.16
2023-02-22T05:19:46.494Z,98022.50
2023-02-22T05:22:14.267Z,98026.75
2023-02-22T05:24:41.926Z,98024.34
2023-02-22T05:27:09.592Z,98012.94
2023-02-22T05:29:38.604Z,98011.81
2023-02-22T05:32:06.734Z,98010.22
2023-02-22T05:34:35.794Z,98002.59
2023-02-22T05:37:03.468Z,98007.13
2023-02-22T05:39:31.123Z,97997.44
2023-02-22T05:41:58.884Z,98008.13
2023-02-22T05:44:27.978Z,97996.59
2023-02-22T05:46:55.697Z,97994.38
2023-02-22T05:49:23.382Z,97998.22
2023-02-22T05:51:52.384Z,98005.16
2023-02-22T05:54:20.049Z,98009.00
2023-02-22T05:56:48.887Z,98007.75
2023-02-22T05:59:16.830Z,98005.94
2023-02-22T06:01:44.523Z,98011.44
2023-02-22T06:04:12.217Z,98012.16
2023-02-22T06:06:39.893Z,98008.38
2023-02-22T06:09:08.847Z,98009.34
2023-02-22T06:11:37.164Z,98010.56
2023-02-22T06:14:04.908Z,98011.91
2023-02-22T06:16:33.025Z,98016.97
2023-02-22T06:19:01.039Z,98013.66
2023-02-22T06:21:29.817Z,98010.56
2023-02-22T06:23:57.629Z,98008.75
2023-02-22T06:26:26.836Z,98022.97
2023-02-22T06:28:54.822Z,98020.75
2023-02-22T06:31:22.944Z,98027.94
2023-02-22T06:33:51.079Z,98021.16
2023-02-22T06:36:19.050Z,98023.41
2023-02-22T06:38:47.015Z,98024.81
2023-02-22T06:41:16.103Z,98031.81
2023-02-22T06:43:45.775Z,98030.97
2023-02-22T06:46:13.873Z,98034.75
2023-02-22T06:48:41.818Z,98037.97
2023-02-22T06:51:10.119Z,98031.94
2023-02-22T06:53:37.778Z,98030.19
2023-02-22T06:56:06.243Z,98028.03
2023-02-22T06:58:33.880Z,98026.50
2023-02-22T07:01:03.875Z,98024.66
2023-02-22T07:03:31.658Z,98027.69
2023-02-22T07:05:59.291Z,98032.69
2023-02-22T07:08:26.970Z,98024.59
2023-02-22T07:10:54.711Z,98021.94
2023-02-22T07:13:23.673Z,98013.28
2023-02-22T07:15:51.310Z,98027.78
2023-02-22T07:18:20.599Z,98027.22
2023-02-22T07:20:48.594Z,98018.09
2023-02-22T07:23:16.801Z,98015.00
2023-02-22T07:25:45.207Z,98016.59
2023-02-22T07:28:13.384Z,98014.69
2023-02-22T07:30:41.178Z,98015.69
2023-02-22T07:33:10.531Z,98009.66
2023-02-22T07:35:44.370Z,98014.78
2023-02-22T07:38:11.981Z,98010.97
2023-02-22T07:40:40.388Z,98012.63
2023-02-22T07:43:17.323Z,98011.94
2023-02-22T07:45:45.214Z,98012.19
2023-02-22T07:48:14.337Z,98012.09
2023-02-22T07:50:44.609Z,98013.84
2023-02-22T07:53:15.402Z,98015.94
2023-02-22T07:55:43.560Z,98019.44
2023-02-22T07:58:16.982Z,98021.03
2023-02-22T08:00:47.327Z,98015.75
2023-02-22T08:03:19.432Z,98012.75
2023-02-22T08:05:51.202Z,98020.88
2023-02-22T08:08:20.011Z,98011.59
2023-02-22T08:10:48.875Z,98008.88
2023-02-22T08:13:17.451Z,98007.19
2023-02-22T08:15:47.130Z,97997.22
2023-02-22T08:18:17.356Z,98004.41
2023-02-22T08:20:47.140Z,97997.81
2023-02-22T08:23:17.699Z,97997.31
2023-02-22T08:25:45.611Z,98003.13
2023-02-22T08:28:15.165Z,97992.81
2023-02-22T08:30:43.836Z,97994.06
2023-02-22T08:33:14.224Z,97999.38
2023-02-22T08:35:42.299Z,97998.81
2023-02-22T08:38:19.011Z,97991.53
2023-02-22T08:40:46.772Z,97999.25
2023-02-22T08:43:14.738Z,97993.13
2023-02-22T08:45:42.618Z,97993.94
2023-02-22T08:48:10.279Z,97990.19
2023-02-22T08:50:38.129Z,97988.56
2023-02-22T08:53:06.849Z,97985.44
2023-02-22T08:55:37.671Z,97991.91
2023-02-22T08:58:09.223Z,97999.63
2023-02-22T09:00:39.058Z,97986.34
2023-02-22T09:03:08.776Z,97990.09
2023-02-22T09:05:36.478Z,97989.72
2023-02-22T09:08:05.094Z,97989.69
2023-02-22T09:10:35.407Z,97983.53
2023-02-22T09:13:04.040Z,97986.19
2023-02-22T09:15:32.964Z,97986.47
2023-02-22T09:18:01.204Z,97982.53
2023-02-22T09:20:30.312Z,97991.00
2023-02-22T09:22:58.195Z,97981.75
2023-02-22T09:25:27.145Z,97994.03
2023-02-22T09:27:57.602Z,97979.94
2023-02-22T09:30:31.908Z,97977.38
2023-02-22T09:33:01.592Z,97979.03
2023-02-22T09:35:29.581Z,97980.44
2023-02-22T09:37:58.313Z,97976.03
2023-02-22T09:40:30.096Z,97980.47
2023-02-22T09:43:08.457Z,97972.03
2023-02-22T09:45:45.043Z,97978.19
2023-02-22T09:48:21.595Z,97970.66
2023-02-22T09:50:53.192Z,97976.22
2023-02-22T09:53:29.828Z,97970.66
2023-02-22T09:56:01.636Z,97970.56
2023-02-22T09:58:34.337Z,97961.47
2023-02-22T10:01:16.876Z,97952.50
2023-02-22T10:03:51.135Z,97959.63
2023-02-22T10:06:22.502Z,97957.78
2023-02-22T10:08:53.753Z,97960.50
2023-02-22T10:11:37.512Z,97961.47
2023-02-22T10:14:31.261Z,97955.34
2023-02-22T10:17:12.578Z,97957.63
2023-02-22T10:19:54.970Z,97956.19
2023-02-22T10:22:44.024Z,97951.41
2023-02-22T10:25:21.265Z,97942.97
2023-02-22T10:27:56.497Z,97940.13
2023-02-22T10:30:37.902Z,97945.72
2023-02-22T10:33:12.750Z,97941.81
2023-02-22T10:35:43.933Z,97939.72
2023-02-22T10:38:18.035Z,97940.66
2023-02-22T10:41:05.692Z,97937.16
2023-02-22T10:43:33.553Z,97935.59
2023-02-22T10:46:08.912Z,97931.69
2023-02-22T10:48:39.968Z,97924.72
2023-02-22T10:51:09.596Z,97931.47
2023-02-22T10:53:38.318Z,97927.81
2023-02-22T10:56:10.261Z,97929.28
2023-02-22T10:58:51.557Z,97916.25
2023-02-22T11:01:24.726Z,97914.69
2023-02-22T11:04:05.143Z,97916.75
2023-02-22T11:06:34.871Z,97916.56
2023-02-22T11:09:10.366Z,97913.50
2023-02-22T11:11:39.925Z,97912.03
2023-02-22T11:14:10.813Z,97908.06
2023-02-22T11:16:43.582Z,97900.41
2023-02-22T11:19:20.896Z,97905.03
2023-02-22T11:21:51.552Z,97896.03
2023-02-22T11:24:24.125Z,97895.00
2023-02-22T11:26:57.393Z,97893.63
2023-02-22T11:29:28.823Z,97893.34
2023-02-22T11:31:58.098Z,97879.94
2023-02-22T11:34:30.147Z,97884.34
2023-02-22T11:36:58.449Z,97879.50
2023-02-22T11:39:29.341Z,97880.06
2023-02-22T11:41:57.677Z,97870.28
2023-02-22T11:44:28.620Z,97867.16
2023-02-22T11:47:01.441Z,97861.72
2023-02-22T11:49:35.107Z,97857.53
2023-02-22T11:52:16.404Z,97858.56
2023-02-22T11:54:56.602Z,97844.78
2023-02-22T11:57:39.663Z,97851.09
2023-02-22T12:00:24.410Z,97846.56
2023-02-22T12:03:28.970Z,97846.81
2023-02-22T12:06:11.842Z,97845.06
2023-02-22T12:08:52.809Z,97836.75
2023-02-22T12:11:28.555Z,97835.50
2023-02-22T12:14:08.593Z,97831.09
2023-02-22T12:16:50.180Z,97823.31
2023-02-22T12:19:31.595Z,97819.94
2023-02-22T12:22:03.347Z,97811.53
2023-02-22T12:24:37.217Z,97812.31
2023-02-22T12:27:10.467Z,97804.38
2023-02-22T12:29:42.402Z,97802.56
2023-02-22T12:32:14.384Z,97801.09
2023-02-22T12:34:47.439Z,97794.63
2023-02-22T12:37:22.147Z,97802.31
2023-02-22T12:40:08.431Z,97795.72
2023-02-22T12:42:48.587Z,97792.94
2023-02-22T12:45:27.091Z,97793.28
2023-02-22T12:48:02.064Z,97788.75
2023-02-22T12:50:34.542Z,97785.13
2023-02-22T12:53:08.199Z,97780.13
2023-02-22T12:55:44.519Z,97776.28
2023-02-22T12:58:25.068Z,97787.47
2023-02-22T13:01:01.249Z,97784.97
2023-02-22T13:03:34.902Z,97780.66
2023-02-22T13:06:35.559Z,97777.44
2023-02-22T13:09:18.496Z,97767.00
2023-02-22T13:11:52.951Z,97767.78
2023-02-22T13:14:43.741Z,97758.22
2023-02-22T13:17:21.089Z,97762.03
2023-02-22T13:19:56.116Z,97756.91
2023-02-22T13:22:35.013Z,97752.78
2023-02-22T13:25:09.189Z,97750.66
2023-02-22T13:27:43.227Z,97755.69
2023-02-22T13:30:21.337Z,97750.97
2023-02-22T13:33:15.559Z,97753.78
2023-02-22T13:36:02.265Z,97746.84
2023-02-22T13:38:52.589Z,97737.75
2023-02-22T13:41:40.257Z,97739.00
2023-02-22T13:44:29.521Z,97753.97
2023-02-22T13:47:33.321Z,97737.44
2023-02-22T13:50:21.551Z,97733.41
2023-02-22T13:52:50.221Z,97740.25
2023-02-22T13:55:24.186Z,97730.22
2023-02-22T13:58:03.048Z,97733.09
2023-02-22T14:00:47.706Z,97744.63
2023-02-22T14:03:41.551Z,97731.56
2023-02-22T14:06:18.823Z,97727.38
2023-02-22T14:08:47.650Z,97733.72
2023-02-22T14:11:47.385Z,97718.16
2023-02-22T14:14:18.384Z,97723.16
2023-02-22T14:16:55.839Z,97727.22
2023-02-22T14:19:24.988Z,97718.03
2023-02-22T14:22:01.924Z,97714.09
2023-02-22T14:24:31.806Z,97721.28
2023-02-22T14:27:05.296Z,97715.09
2023-02-22T14:29:33.027Z,97715.78
2023-02-22T14:32:06.258Z,97726.97
2023-02-22T14:34:44.397Z,97721.44
2023-02-22T14:37:17.229Z,97720.69
2023-02-22T14:39:47.806Z,97718.34
2023-02-22T14:42:22.896Z,97723.84
2023-02-22T14:44:57.192Z,97717.56
2023-02-22T14:47:29.822Z,97717.97
2023-02-22T14:50:05.092Z,97719.94
2023-02-22T14:52:38.035Z,97710.53
2023-02-22T14:55:18.822Z,97713.28
2023-02-22T14:57:59.096Z,97714.84
2023-02-22T15:00:32.004Z,97709.31
2023-02-22T15:03:01.397Z,97709.72
2023-02-22T15:05:35.075Z,97715.63
2023-02-22T15:08:06.551Z,97711.31
2023-02-22T15:10:42.912Z,97709.72
2023-02-22T15:13:19.728Z,97712.88
2023-02-22T15:15:49.616Z,97716.00
2023-02-22T15:18:25.574Z,97719.97
2023-02-22T15:20:57.607Z,97714.03
2023-02-22T15:23:29.662Z,97717.94
2023-02-22T15:25:57.941Z,97717.94
2023-02-22T15:28:30.917Z,97712.81
2023-02-22T15:31:28.545Z,97702.56
2023-02-22T15:33:56.450Z,97713.59
2023-02-22T15:36:28.482Z,97702.16
2023-02-22T15:38:56.914Z,97711.19
2023-02-22T15:41:30.119Z,97699.41
2023-02-22T15:44:05.463Z,97703.31
2023-02-22T15:46:36.178Z,97696.25
2023-02-22T15:49:09.319Z,97697.41
2023-02-22T15:51:40.314Z,97698.53
2023-02-22T15:54:15.671Z,97696.22
2023-02-22T15:56:56.517Z,97701.63
2023-02-22T15:59:30.442Z,97695.34
2023-02-22T16:02:00.187Z,97694.53
2023-02-22T16:04:29.895Z,97697.69
2023-02-22T16:07:06.928Z,97703.88
2023-02-22T16:09:35.256Z,97694.38
2023-02-22T16:12:10.648Z,97691.19
2023-02-22T16:14:44.878Z,97685.69
2023-02-22T16:17:24.762Z,97693.91
2023-02-22T16:19:53.119Z,97692.69
2023-02-22T16:22:27.782Z,97691.56
2023-02-22T16:25:16.230Z,97697.84
2023-02-22T16:27:48.318Z,97695.88
2023-02-22T16:30:27.472Z,97692.72
2023-02-22T16:32:57.929Z,97699.75
2023-02-22T16:35:28.810Z,97698.53
2023-02-22T16:38:00.405Z,97691.09
2023-02-22T16:40:32.289Z,97693.44
2023-02-22T16:43:02.520Z,97691.84
2023-02-22T16:45:31.535Z,97695.34
2023-02-22T16:48:00.599Z,97692.59
2023-02-22T16:50:28.286Z,97687.13
2023-02-22T16:52:58.546Z,97700.81
2023-02-22T16:55:26.733Z,97691.78
2023-02-22T16:58:00.926Z,97691.72
2023-02-22T17:00:32.020Z,97696.44
2023-02-22T17:03:03.865Z,97700.34
2023-02-22T17:05:32.541Z,97699.53
2023-02-22T17:08:00.183Z,97703.44
2023-02-22T17:10:28.955Z,97709.66
2023-02-22T17:12:57.278Z,97705.72
2023-02-22T17:15:27.410Z,97708.06
2023-02-22T17:17:56.200Z,97700.16
2023-02-22T17:20:30.072Z,97707.22
2023-02-22T17:22:58.975Z,97707.19
2023-02-22T17:25:31.390Z,97700.88
2023-02-22T17:27:59.093Z,97707.13
2023-02-22T17:30:28.004Z,97708.63
2023-02-22T17:33:03.530Z,97712.19
2023-02-22T17:35:36.727Z,97709.38
2023-02-22T17:38:06.380Z,97715.66
2023-02-22T17:40:34.816Z,97716.44
2023-02-22T17:43:03.016Z,97712.53
2023-02-22T17:45:31.311Z,97718.00
2023-02-22T17:48:00.677Z,97714.06
2023-02-22T17:50:28.472Z,97719.53
2023-02-22T17:52:57.405Z,97708.50
2023-02-22T17:55:25.102Z,97713.16
2023-02-22T17:57:58.223Z,97712.34
2023-02-22T18:00:33.043Z,97717.81
2023-02-22T18:03:03.157Z,97720.13
2023-02-22T18:05:33.005Z,97722.41
2023-02-22T18:08:02.002Z,97718.81
2023-02-22T18:10:29.636Z,97714.09
2023-02-22T18:13:01.865Z,97719.91
2023-02-22T18:15:30.664Z,97715.16
2023-02-22T18:17:58.255Z,97719.84
2023-02-22T18:20:31.106Z,97729.19
2023-02-22T18:23:00.230Z,97726.06
2023-02-22T18:25:29.337Z,97722.75
2023-02-22T18:27:56.971Z,97726.28
2023-02-22T18:30:25.313Z,97725.06
2023-02-22T18:32:52.934Z,97728.19
2023-02-22T18:35:20.586Z,97736.41
2023-02-22T18:37:48.475Z,97736.38
2023-02-22T18:40:18.889Z,97732.75
2023-02-22T18:42:47.933Z,97731.22
2023-02-22T18:45:17.082Z,97732.75
2023-02-22T18:47:45.560Z,97733.50
2023-02-22T18:50:15.781Z,97730.69
2023-02-22T18:52:45.881Z,97732.56
2023-02-22T18:55:15.229Z,97734.88
2023-02-22T18:57:43.587Z,97736.78
2023-02-22T19:00:16.258Z,97731.97
2023-02-22T19:02:44.222Z,97732.91
2023-02-22T19:05:12.322Z,97720.69
2023-02-22T19:07:40.310Z,97722.50
2023-02-22T19:10:08.716Z,97726.69
2023-02-22T19:12:36.605Z,97716.84
2023-02-22T19:15:04.429Z,97724.25
2023-02-22T19:17:36.426Z,97719.94
2023-02-22T19:20:06.674Z,97728.50
2023-02-22T19:22:34.766Z,97727.63
2023-02-22T19:25:04.202Z,97736.16
2023-02-22T19:27:34.131Z,97736.06
2023-02-22T19:30:03.704Z,97731.34
2023-02-22T19:32:33.820Z,97739.78
2023-02-22T19:35:02.938Z,97738.91
2023-02-22T19:37:34.123Z,97746.75
2023-02-22T19:40:05.777Z,97744.50
2023-02-22T19:42:35.001Z,97743.06
2023-02-22T19:45:02.963Z,97744.50
2023-02-22T19:47:30.727Z,97737.97
2023-02-22T19:50:01.408Z,97738.41
2023-02-22T19:52:29.411Z,97741.47
2023-02-22T19:54:57.157Z,97746.16
2023-02-22T19:57:24.877Z,97744.59
2023-02-22T19:59:52.784Z,97747.75
2023-02-22T20:02:22.904Z,97747.69
2023-02-22T20:04:53.698Z,97750.16
2023-02-22T20:07:22.974Z,97745.06
2023-02-22T20:09:50.990Z,97748.53
2023-02-22T20:12:19.012Z,97749.25
2023-02-22T20:14:47.260Z,97739.91
2023-02-22T20:17:15.090Z,97748.09
2023-02-22T20:19:43.054Z,97753.88
2023-02-22T20:22:11.201Z,97743.66
2023-02-22T20:24:41.906Z,97749.13
2023-02-22T20:27:10.851Z,97743.66
2023-02-22T20:29:38.555Z,97744.50
2023-02-22T20:32:07.510Z,97743.78
2023-02-22T20:34:36.269Z,97755.47
2023-02-22T20:37:05.813Z,97754.72
2023-02-22T20:39:33.630Z,97750.59
2023-02-22T20:42:05.060Z,97758.91
2023-02-22T20:44:32.872Z,97754.59
2023-02-22T20:47:00.848Z,97758.50
2023-02-22T20:49:28.952Z,97765.66
2023-02-22T20:51:56.692Z,97750.84
2023-02-22T20:54:24.472Z,97745.00
2023-02-22T20:56:53.127Z,97752.03
2023-02-22T20:59:22.898Z,97758.31
2023-02-22T21:01:53.048Z,97747.00
2023-02-22T21:04:22.184Z,97756.78
2023-02-22T21:06:50.241Z,97757.09
2023-02-22T21:09:20.294Z,97750.91
2023-02-22T21:11:49.093Z,97755.94
2023-02-22T21:14:19.730Z,97752.63
2023-02-22T21:16:53.156Z,97743.59
2023-02-22T21:19:25.440Z,97750.34
2023-02-22T21:22:01.357Z,97744.03
2023-02-22T21:24:30.649Z,97741.50
2023-02-22T21:26:59.286Z,97749.09
2023-02-22T21:29:27.485Z,97753.94
2023-02-22T21:31:57.372Z,97751.84
2023-02-22T21:34:25.924Z,97752.56
2023-02-22T21:36:54.292Z,97748.69
2023-02-22T21:39:22.764Z,97749.97
2023-02-22T21:41:53.258Z,97753.69
2023-02-22T21:44:21.860Z,97753.00
2023-02-22T21:46:49.897Z,97755.88
2023-02-22T21:49:22.410Z,97761.19
2023-02-22T21:51:51.601Z,97763.75
2023-02-22T21:54:20.171Z,97759.38
2023-02-22T21:56:47.958Z,97769.34
2023-02-22T21:59:18.870Z,97765.91
2023-02-22T22:01:49.900Z,97762.13
2023-02-22T22:04:20.772Z,97758.75
2023-02-22T22:06:50.903Z,97766.63
2023-02-22T22:09:19.240Z,97765.22
2023-02-22T22:11:49.530Z,97760.19
2023-02-22T22:14:18.698Z,97766.78
2023-02-22T22:16:50.571Z,97766.63
2023-02-22T22:19:19.943Z,97772.53
2023-02-22T22:21:49.073Z,97763.47
2023-02-22T22:24:16.886Z,97763.09
2023-02-22T22:26:45.090Z,97761.16
2023-02-22T22:29:14.575Z,97762.91
2023-02-22T22:31:42.326Z,97765.13
2023-02-22T22:34:09.994Z,97762.75
2023-02-22T22:36:39.425Z,97761.03
2023-02-22T22:39:12.952Z,97769.72
2023-02-22T22:41:41.292Z,97765.03
2023-02-22T22:44:09.572Z,97759.38
2023-02-22T22:46:39.599Z,97762.28
2023-02-22T22:49:08.766Z,97763.41
2023-02-22T22:51:37.413Z,97764.75
2023-02-22T22:54:06.697Z,97771.16
2023-02-22T22:56:36.325Z,97769.50
2023-02-22T22:59:07.821Z,97765.63
2023-02-22T23:01:39.302Z,97767.19
2023-02-22T23:04:09.313Z,97760.00
2023-02-22T23:06:40.573Z,97773.38
2023-02-22T23:09:14.576Z,97770.91
2023-02-22T23:11:45.290Z,97763.00
2023-02-22T23:14:14.098Z,97762.84
2023-02-22T23:16:42.716Z,97764.25
2023-02-22T23:19:10.625Z,97761.09
2023-02-22T23:21:39.466Z,97764.06
2023-02-22T23:24:08.831Z,97761.81
2023-02-22T23:26:36.994Z,97758.44
2023-02-22T23:29:05.124Z,97757.56
2023-02-22T23:31:33.138Z,97760.03
2023-02-22T23:34:06.585Z,97759.16
2023-02-22T23:36:34.612Z,97762.31
2023-02-22T23:39:02.240Z,97765.66
2023-02-22T23:41:31.396Z,97766.38
2023-02-22T23:43:59.969Z,97768.66
2023-02-22T23:46:32.801Z,97767.94
2023-02-22T23:49:02.309Z,97778.88
2023-02-22T23:51:39.062Z,97768.66
2023-02-22T23:54:08.178Z,97767.78
2023-02-22T23:56:39.999Z,97764.53
2023-02-22T23:59:11.234Z,97772.97
